sensor_id;sensor_type;location;lat;lon;timestamp;P1;durP1;ratioP1;P2;durP2;ratioP2
69081;SDS011;56184;51.986;5.760;2022-08-21T00:00:06;4.15;;;1.88;;
69081;SDS011;56184;51.986;5.760;2022-08-21T00:02:36;3.78;;;1.85;;
69081;SDS011;56184;51.986;5.760;2022-08-21T00:05:02;4.75;;;1.90;;
69081;SDS011;56184;51.986;5.760;2022-08-21T00:07:29;6.45;;;2.00;;
69081;SDS011;56184;51.986;5.760;2022-08-21T00:09:54;5.10;;;1.58;;
69081;SDS011;56184;51.986;5.760;2022-08-21T00:12:20;3.33;;;1.73;;
69081;SDS011;56184;51.986;5.760;2022-08-21T00:14:46;4.15;;;2.10;;
69081;SDS011;56184;51.986;5.760;2022-08-21T00:17:12;4.13;;;1.98;;
69081;SDS011;56184;51.986;5.760;2022-08-21T00:19:38;6.05;;;2.33;;
69081;SDS011;56184;51.986;5.760;2022-08-21T00:22:03;8.23;;;2.38;;
69081;SDS011;56184;51.986;5.760;2022-08-21T00:24:35;4.55;;;2.28;;
69081;SDS011;56184;51.986;5.760;2022-08-21T00:29:45;4.17;;;2.30;;
69081;SDS011;56184;51.986;5.760;2022-08-21T00:32:11;6.30;;;2.13;;
69081;SDS011;56184;51.986;5.760;2022-08-21T00:34:37;5.32;;;2.08;;
69081;SDS011;56184;51.986;5.760;2022-08-21T00:37:02;5.13;;;2.10;;
69081;SDS011;56184;51.986;5.760;2022-08-21T00:39:28;4.18;;;1.80;;
69081;SDS011;56184;51.986;5.760;2022-08-21T00:41:53;5.97;;;1.80;;
69081;SDS011;56184;51.986;5.760;2022-08-21T00:44:19;3.22;;;1.75;;
69081;SDS011;56184;51.986;5.760;2022-08-21T00:46:44;4.10;;;1.60;;
69081;SDS011;56184;51.986;5.760;2022-08-21T00:49:11;7.22;;;1.77;;
69081;SDS011;56184;51.986;5.760;2022-08-21T00:51:42;3.75;;;1.95;;
69081;SDS011;56184;51.986;5.760;2022-08-21T00:54:14;3.47;;;2.20;;
69081;SDS011;56184;51.986;5.760;2022-08-21T00:56:41;6.10;;;1.73;;
69081;SDS011;56184;51.986;5.760;2022-08-21T00:59:07;5.68;;;2.20;;
69081;SDS011;56184;51.986;5.760;2022-08-21T01:01:33;4.57;;;2.00;;
69081;SDS011;56184;51.986;5.760;2022-08-21T01:03:59;5.25;;;1.80;;
69081;SDS011;56184;51.986;5.760;2022-08-21T01:06:25;4.13;;;1.95;;
69081;SDS011;56184;51.986;5.760;2022-08-21T01:08:50;4.95;;;1.70;;
69081;SDS011;56184;51.986;5.760;2022-08-21T01:11:16;6.60;;;2.00;;
69081;SDS011;56184;51.986;5.760;2022-08-21T01:13:42;3.42;;;2.30;;
69081;SDS011;56184;51.986;5.760;2022-08-21T01:16:12;5.68;;;2.03;;
69081;SDS011;56184;51.986;5.760;2022-08-21T01:18:40;4.53;;;1.92;;
69081;SDS011;56184;51.986;5.760;2022-08-21T01:21:07;4.57;;;2.05;;
69081;SDS011;56184;51.986;5.760;2022-08-21T01:23:46;2.83;;;1.85;;
69081;SDS011;56184;51.986;5.760;2022-08-21T01:26:15;3.83;;;1.98;;
69081;SDS011;56184;51.986;5.760;2022-08-21T01:28:54;3.25;;;1.75;;
69081;SDS011;56184;51.986;5.760;2022-08-21T01:31:41;3.90;;;1.80;;
69081;SDS011;56184;51.986;5.760;2022-08-21T01:34:07;3.78;;;1.83;;
69081;SDS011;56184;51.986;5.760;2022-08-21T01:36:33;3.28;;;2.00;;
69081;SDS011;56184;51.986;5.760;2022-08-21T01:38:59;4.40;;;2.10;;
69081;SDS011;56184;51.986;5.760;2022-08-21T01:41:26;4.57;;;1.90;;
69081;SDS011;56184;51.986;5.760;2022-08-21T01:43:52;4.20;;;1.70;;
69081;SDS011;56184;51.986;5.760;2022-08-21T01:46:17;3.17;;;1.85;;
69081;SDS011;56184;51.986;5.760;2022-08-21T01:48:43;4.15;;;2.20;;
69081;SDS011;56184;51.986;5.760;2022-08-21T01:51:09;5.72;;;2.30;;
69081;SDS011;56184;51.986;5.760;2022-08-21T01:53:35;5.03;;;2.60;;
69081;SDS011;56184;51.986;5.760;2022-08-21T01:56:02;4.53;;;2.28;;
69081;SDS011;56184;51.986;5.760;2022-08-21T01:58:34;5.25;;;2.08;;
69081;SDS011;56184;51.986;5.760;2022-08-21T02:01:00;4.45;;;2.50;;
69081;SDS011;56184;51.986;5.760;2022-08-21T02:03:28;7.78;;;3.17;;
69081;SDS011;56184;51.986;5.760;2022-08-21T02:05:54;8.30;;;3.60;;
69081;SDS011;56184;51.986;5.760;2022-08-21T02:08:20;7.78;;;3.60;;
69081;SDS011;56184;51.986;5.760;2022-08-21T02:10:47;7.97;;;4.00;;
69081;SDS011;56184;51.986;5.760;2022-08-21T02:13:14;8.35;;;4.03;;
69081;SDS011;56184;51.986;5.760;2022-08-21T02:15:40;11.63;;;4.40;;
69081;SDS011;56184;51.986;5.760;2022-08-21T02:18:05;7.88;;;4.50;;
69081;SDS011;56184;51.986;5.760;2022-08-21T02:20:36;7.75;;;4.63;;
69081;SDS011;56184;51.986;5.760;2022-08-21T02:23:04;6.50;;;4.05;;
69081;SDS011;56184;51.986;5.760;2022-08-21T02:25:37;7.75;;;4.22;;
69081;SDS011;56184;51.986;5.760;2022-08-21T02:28:04;9.55;;;4.60;;
69081;SDS011;56184;51.986;5.760;2022-08-21T02:30:33;8.18;;;4.20;;
69081;SDS011;56184;51.986;5.760;2022-08-21T02:33:02;9.40;;;4.03;;
69081;SDS011;56184;51.986;5.760;2022-08-21T02:35:29;6.05;;;4.00;;
69081;SDS011;56184;51.986;5.760;2022-08-21T02:37:59;7.70;;;3.95;;
69081;SDS011;56184;51.986;5.760;2022-08-21T02:40:29;8.15;;;3.50;;
69081;SDS011;56184;51.986;5.760;2022-08-21T02:42:57;6.10;;;3.83;;
69081;SDS011;56184;51.986;5.760;2022-08-21T02:45:23;5.63;;;3.20;;
69081;SDS011;56184;51.986;5.760;2022-08-21T02:47:54;11.27;;;4.80;;
69081;SDS011;56184;51.986;5.760;2022-08-21T02:50:26;11.00;;;5.00;;
69081;SDS011;56184;51.986;5.760;2022-08-21T02:52:56;5.65;;;3.95;;
69081;SDS011;56184;51.986;5.760;2022-08-21T02:55:23;8.45;;;4.15;;
69081;SDS011;56184;51.986;5.760;2022-08-21T02:57:51;8.60;;;5.03;;
69081;SDS011;56184;51.986;5.760;2022-08-21T03:00:19;11.30;;;5.20;;
69081;SDS011;56184;51.986;5.760;2022-08-21T03:02:46;11.27;;;5.05;;
69081;SDS011;56184;51.986;5.760;2022-08-21T03:05:12;9.38;;;4.53;;
69081;SDS011;56184;51.986;5.760;2022-08-21T03:07:40;7.50;;;4.53;;
69081;SDS011;56184;51.986;5.760;2022-08-21T03:10:06;11.23;;;4.68;;
69081;SDS011;56184;51.986;5.760;2022-08-21T03:12:32;11.65;;;5.40;;
69081;SDS011;56184;51.986;5.760;2022-08-21T03:14:58;7.85;;;4.25;;
69081;SDS011;56184;51.986;5.760;2022-08-21T03:17:24;7.07;;;4.03;;
69081;SDS011;56184;51.986;5.760;2022-08-21T03:19:49;5.72;;;3.80;;
69081;SDS011;56184;51.986;5.760;2022-08-21T03:22:15;8.63;;;4.35;;
69081;SDS011;56184;51.986;5.760;2022-08-21T03:24:41;8.68;;;4.70;;
69081;SDS011;56184;51.986;5.760;2022-08-21T03:27:06;8.13;;;4.75;;
69081;SDS011;56184;51.986;5.760;2022-08-21T03:29:32;10.77;;;4.68;;
69081;SDS011;56184;51.986;5.760;2022-08-21T03:31:58;7.32;;;4.53;;
69081;SDS011;56184;51.986;5.760;2022-08-21T03:34:23;7.43;;;4.50;;
69081;SDS011;56184;51.986;5.760;2022-08-21T03:36:50;9.43;;;4.93;;
69081;SDS011;56184;51.986;5.760;2022-08-21T03:39:16;10.55;;;4.68;;
69081;SDS011;56184;51.986;5.760;2022-08-21T03:41:42;6.43;;;4.40;;
69081;SDS011;56184;51.986;5.760;2022-08-21T03:44:07;7.20;;;3.80;;
69081;SDS011;56184;51.986;5.760;2022-08-21T03:46:33;9.70;;;4.93;;
69081;SDS011;56184;51.986;5.760;2022-08-21T03:48:59;9.60;;;4.63;;
69081;SDS011;56184;51.986;5.760;2022-08-21T03:51:25;9.63;;;4.78;;
69081;SDS011;56184;51.986;5.760;2022-08-21T03:53:51;12.18;;;4.65;;
69081;SDS011;56184;51.986;5.760;2022-08-21T03:56:17;9.57;;;4.40;;
69081;SDS011;56184;51.986;5.760;2022-08-21T03:58:43;8.02;;;4.25;;
69081;SDS011;56184;51.986;5.760;2022-08-21T04:01:09;8.38;;;4.05;;
69081;SDS011;56184;51.986;5.760;2022-08-21T04:03:35;13.00;;;4.55;;
69081;SDS011;56184;51.986;5.760;2022-08-21T04:06:02;8.20;;;4.07;;
69081;SDS011;56184;51.986;5.760;2022-08-21T04:08:28;8.35;;;4.38;;
69081;SDS011;56184;51.986;5.760;2022-08-21T04:10:55;7.20;;;4.70;;
69081;SDS011;56184;51.986;5.760;2022-08-21T04:13:23;9.27;;;4.55;;
69081;SDS011;56184;51.986;5.760;2022-08-21T04:15:48;7.07;;;4.97;;
69081;SDS011;56184;51.986;5.760;2022-08-21T04:18:14;8.00;;;4.63;;
69081;SDS011;56184;51.986;5.760;2022-08-21T04:20:41;8.98;;;4.32;;
69081;SDS011;56184;51.986;5.760;2022-08-21T04:23:08;12.68;;;4.78;;
69081;SDS011;56184;51.986;5.760;2022-08-21T04:25:33;7.50;;;4.30;;
69081;SDS011;56184;51.986;5.760;2022-08-21T04:28:00;8.85;;;4.32;;
69081;SDS011;56184;51.986;5.760;2022-08-21T04:30:26;9.88;;;4.32;;
69081;SDS011;56184;51.986;5.760;2022-08-21T04:32:52;8.50;;;4.40;;
69081;SDS011;56184;51.986;5.760;2022-08-21T04:35:19;7.60;;;3.17;;
69081;SDS011;56184;51.986;5.760;2022-08-21T04:37:47;7.65;;;3.40;;
69081;SDS011;56184;51.986;5.760;2022-08-21T04:40:14;6.82;;;3.50;;
69081;SDS011;56184;51.986;5.760;2022-08-21T04:42:42;6.95;;;3.72;;
69081;SDS011;56184;51.986;5.760;2022-08-21T04:45:24;6.78;;;3.80;;
69081;SDS011;56184;51.986;5.760;2022-08-21T04:48:02;5.03;;;3.45;;
69081;SDS011;56184;51.986;5.760;2022-08-21T04:50:37;8.23;;;3.70;;
69081;SDS011;56184;51.986;5.760;2022-08-21T04:53:14;8.32;;;3.97;;
69081;SDS011;56184;51.986;5.760;2022-08-21T04:55:43;9.82;;;4.43;;
69081;SDS011;56184;51.986;5.760;2022-08-21T04:58:11;9.35;;;4.28;;
69081;SDS011;56184;51.986;5.760;2022-08-21T05:00:39;6.75;;;3.92;;
69081;SDS011;56184;51.986;5.760;2022-08-21T05:03:06;8.07;;;4.28;;
69081;SDS011;56184;51.986;5.760;2022-08-21T05:05:34;7.38;;;3.90;;
69081;SDS011;56184;51.986;5.760;2022-08-21T05:08:01;9.10;;;4.20;;
69081;SDS011;56184;51.986;5.760;2022-08-21T05:10:27;10.35;;;4.30;;
69081;SDS011;56184;51.986;5.760;2022-08-21T05:12:53;9.55;;;3.78;;
69081;SDS011;56184;51.986;5.760;2022-08-21T05:15:20;8.05;;;4.43;;
69081;SDS011;56184;51.986;5.760;2022-08-21T05:17:46;7.35;;;4.15;;
69081;SDS011;56184;51.986;5.760;2022-08-21T05:20:12;8.25;;;4.90;;
69081;SDS011;56184;51.986;5.760;2022-08-21T05:22:38;8.45;;;4.53;;
69081;SDS011;56184;51.986;5.760;2022-08-21T05:25:05;8.13;;;5.15;;
69081;SDS011;56184;51.986;5.760;2022-08-21T05:27:31;7.05;;;4.70;;
69081;SDS011;56184;51.986;5.760;2022-08-21T05:29:57;8.60;;;4.55;;
69081;SDS011;56184;51.986;5.760;2022-08-21T05:32:23;10.73;;;5.35;;
69081;SDS011;56184;51.986;5.760;2022-08-21T05:34:49;10.27;;;4.97;;
69081;SDS011;56184;51.986;5.760;2022-08-21T05:37:15;10.30;;;5.60;;
69081;SDS011;56184;51.986;5.760;2022-08-21T05:39:41;11.23;;;4.95;;
69081;SDS011;56184;51.986;5.760;2022-08-21T05:42:06;11.77;;;5.60;;
69081;SDS011;56184;51.986;5.760;2022-08-21T05:44:32;9.88;;;5.43;;
69081;SDS011;56184;51.986;5.760;2022-08-21T05:47:02;12.10;;;7.00;;
69081;SDS011;56184;51.986;5.760;2022-08-21T05:49:32;11.73;;;6.82;;
69081;SDS011;56184;51.986;5.760;2022-08-21T05:51:57;13.93;;;7.55;;
69081;SDS011;56184;51.986;5.760;2022-08-21T05:54:23;11.05;;;6.85;;
69081;SDS011;56184;51.986;5.760;2022-08-21T05:56:49;12.02;;;7.20;;
69081;SDS011;56184;51.986;5.760;2022-08-21T05:59:14;15.75;;;7.63;;
69081;SDS011;56184;51.986;5.760;2022-08-21T06:01:40;15.32;;;7.97;;
69081;SDS011;56184;51.986;5.760;2022-08-21T06:04:06;13.30;;;7.50;;
69081;SDS011;56184;51.986;5.760;2022-08-21T06:06:33;12.80;;;8.00;;
69081;SDS011;56184;51.986;5.760;2022-08-21T06:08:59;15.13;;;8.40;;
69081;SDS011;56184;51.986;5.760;2022-08-21T06:11:25;14.10;;;8.93;;
69081;SDS011;56184;51.986;5.760;2022-08-21T06:13:51;15.95;;;8.85;;
69081;SDS011;56184;51.986;5.760;2022-08-21T06:16:17;16.33;;;9.43;;
69081;SDS011;56184;51.986;5.760;2022-08-21T06:18:43;17.02;;;9.43;;
69081;SDS011;56184;51.986;5.760;2022-08-21T06:21:09;14.18;;;8.68;;
69081;SDS011;56184;51.986;5.760;2022-08-21T06:23:36;15.82;;;8.68;;
69081;SDS011;56184;51.986;5.760;2022-08-21T06:26:02;17.40;;;9.20;;
69081;SDS011;56184;51.986;5.760;2022-08-21T06:28:30;15.43;;;9.80;;
69081;SDS011;56184;51.986;5.760;2022-08-21T06:30:57;14.93;;;7.80;;
69081;SDS011;56184;51.986;5.760;2022-08-21T06:33:22;17.95;;;8.15;;
69081;SDS011;56184;51.986;5.760;2022-08-21T06:35:48;16.08;;;7.88;;
69081;SDS011;56184;51.986;5.760;2022-08-21T06:38:15;17.17;;;7.95;;
69081;SDS011;56184;51.986;5.760;2022-08-21T06:40:41;18.15;;;8.30;;
69081;SDS011;56184;51.986;5.760;2022-08-21T06:43:12;15.20;;;7.38;;
69081;SDS011;56184;51.986;5.760;2022-08-21T06:45:39;20.30;;;7.85;;
69081;SDS011;56184;51.986;5.760;2022-08-21T06:48:14;17.20;;;7.88;;
69081;SDS011;56184;51.986;5.760;2022-08-21T06:50:39;16.25;;;8.07;;
69081;SDS011;56184;51.986;5.760;2022-08-21T06:53:06;15.32;;;7.30;;
69081;SDS011;56184;51.986;5.760;2022-08-21T06:55:35;16.10;;;6.80;;
69081;SDS011;56184;51.986;5.760;2022-08-21T06:58:01;13.45;;;6.88;;
69081;SDS011;56184;51.986;5.760;2022-08-21T07:00:28;23.52;;;7.45;;
69081;SDS011;56184;51.986;5.760;2022-08-21T07:02:54;16.27;;;7.25;;
69081;SDS011;56184;51.986;5.760;2022-08-21T07:05:19;19.58;;;6.63;;
69081;SDS011;56184;51.986;5.760;2022-08-21T07:07:45;20.80;;;7.40;;
69081;SDS011;56184;51.986;5.760;2022-08-21T07:10:12;18.65;;;6.82;;
69081;SDS011;56184;51.986;5.760;2022-08-21T07:12:38;20.90;;;6.43;;
69081;SDS011;56184;51.986;5.760;2022-08-21T07:15:04;18.77;;;6.45;;
69081;SDS011;56184;51.986;5.760;2022-08-21T07:17:30;18.75;;;6.43;;
69081;SDS011;56184;51.986;5.760;2022-08-21T07:19:56;17.80;;;5.68;;
69081;SDS011;56184;51.986;5.760;2022-08-21T07:22:23;16.23;;;6.15;;
69081;SDS011;56184;51.986;5.760;2022-08-21T07:24:49;18.42;;;6.55;;
69081;SDS011;56184;51.986;5.760;2022-08-21T07:27:14;23.77;;;6.13;;
69081;SDS011;56184;51.986;5.760;2022-08-21T07:29:40;15.85;;;5.97;;
69081;SDS011;56184;51.986;5.760;2022-08-21T07:32:06;21.08;;;6.10;;
69081;SDS011;56184;51.986;5.760;2022-08-21T07:34:32;18.52;;;6.22;;
69081;SDS011;56184;51.986;5.760;2022-08-21T07:36:58;20.40;;;5.40;;
69081;SDS011;56184;51.986;5.760;2022-08-21T07:39:23;14.63;;;5.53;;
69081;SDS011;56184;51.986;5.760;2022-08-21T07:41:49;22.05;;;5.65;;
69081;SDS011;56184;51.986;5.760;2022-08-21T07:44:15;13.25;;;5.25;;
69081;SDS011;56184;51.986;5.760;2022-08-21T07:46:41;13.80;;;5.95;;
69081;SDS011;56184;51.986;5.760;2022-08-21T07:49:07;15.98;;;5.50;;
69081;SDS011;56184;51.986;5.760;2022-08-21T07:51:32;20.73;;;5.80;;
69081;SDS011;56184;51.986;5.760;2022-08-21T07:53:59;17.38;;;5.75;;
69081;SDS011;56184;51.986;5.760;2022-08-21T07:56:25;18.00;;;5.50;;
69081;SDS011;56184;51.986;5.760;2022-08-21T07:58:54;19.48;;;5.20;;
69081;SDS011;56184;51.986;5.760;2022-08-21T08:01:22;17.05;;;5.25;;
69081;SDS011;56184;51.986;5.760;2022-08-21T08:03:48;18.38;;;5.38;;
69081;SDS011;56184;51.986;5.760;2022-08-21T08:06:13;12.63;;;4.68;;
69081;SDS011;56184;51.986;5.760;2022-08-21T08:08:40;18.35;;;5.80;;
69081;SDS011;56184;51.986;5.760;2022-08-21T08:11:07;15.20;;;5.10;;
69081;SDS011;56184;51.986;5.760;2022-08-21T08:13:39;17.95;;;5.00;;
69081;SDS011;56184;51.986;5.760;2022-08-21T08:16:10;18.48;;;5.03;;
69081;SDS011;56184;51.986;5.760;2022-08-21T08:18:36;19.63;;;4.60;;
69081;SDS011;56184;51.986;5.760;2022-08-21T08:21:02;15.02;;;4.93;;
69081;SDS011;56184;51.986;5.760;2022-08-21T08:23:28;16.30;;;4.85;;
69081;SDS011;56184;51.986;5.760;2022-08-21T08:25:55;18.67;;;4.57;;
69081;SDS011;56184;51.986;5.760;2022-08-21T08:28:21;14.10;;;4.50;;
69081;SDS011;56184;51.986;5.760;2022-08-21T08:30:47;15.32;;;4.15;;
69081;SDS011;56184;51.986;5.760;2022-08-21T08:33:13;18.67;;;4.57;;
69081;SDS011;56184;51.986;5.760;2022-08-21T08:35:38;19.67;;;4.70;;
69081;SDS011;56184;51.986;5.760;2022-08-21T08:38:05;11.75;;;3.97;;
69081;SDS011;56184;51.986;5.760;2022-08-21T08:40:32;12.68;;;4.13;;
69081;SDS011;56184;51.986;5.760;2022-08-21T08:43:00;16.42;;;4.40;;
69081;SDS011;56184;51.986;5.760;2022-08-21T08:45:26;18.25;;;4.28;;
69081;SDS011;56184;51.986;5.760;2022-08-21T08:48:00;18.75;;;3.67;;
69081;SDS011;56184;51.986;5.760;2022-08-21T08:50:47;12.40;;;3.85;;
69081;SDS011;56184;51.986;5.760;2022-08-21T08:53:19;16.20;;;3.47;;
69081;SDS011;56184;51.986;5.760;2022-08-21T08:55:53;17.05;;;4.22;;
69081;SDS011;56184;51.986;5.760;2022-08-21T08:58:23;17.08;;;3.80;;
69081;SDS011;56184;51.986;5.760;2022-08-21T09:00:50;14.43;;;3.42;;
69081;SDS011;56184;51.986;5.760;2022-08-21T09:03:16;16.30;;;4.13;;
69081;SDS011;56184;51.986;5.760;2022-08-21T09:05:45;9.73;;;2.90;;
69081;SDS011;56184;51.986;5.760;2022-08-21T09:08:26;22.73;;;3.42;;
69081;SDS011;56184;51.986;5.760;2022-08-21T09:11:52;20.58;;;3.25;;
69081;SDS011;56184;51.986;5.760;2022-08-21T09:23:04;16.55;;;2.78;;
69081;SDS011;56184;51.986;5.760;2022-08-21T09:28:33;12.48;;;2.42;;
69081;SDS011;56184;51.986;5.760;2022-08-21T09:31:00;12.32;;;2.70;;
69081;SDS011;56184;51.986;5.760;2022-08-21T09:33:30;12.38;;;2.63;;
69081;SDS011;56184;51.986;5.760;2022-08-21T09:35:56;11.98;;;2.67;;
69081;SDS011;56184;51.986;5.760;2022-08-21T09:38:29;11.20;;;2.10;;
69081;SDS011;56184;51.986;5.760;2022-08-21T09:41:07;10.03;;;2.03;;
69081;SDS011;56184;51.986;5.760;2022-08-21T09:43:35;14.80;;;2.38;;
69081;SDS011;56184;51.986;5.760;2022-08-21T09:48:38;11.07;;;2.20;;
69081;SDS011;56184;51.986;5.760;2022-08-21T09:51:16;12.35;;;2.30;;
69081;SDS011;56184;51.986;5.760;2022-08-21T09:59:15;10.23;;;1.95;;
69081;SDS011;56184;51.986;5.760;2022-08-21T10:01:50;9.40;;;2.00;;
69081;SDS011;56184;51.986;5.760;2022-08-21T10:04:30;10.93;;;1.98;;
69081;SDS011;56184;51.986;5.760;2022-08-21T10:07:12;7.78;;;1.75;;
69081;SDS011;56184;51.986;5.760;2022-08-21T10:09:39;9.43;;;2.20;;
69081;SDS011;56184;51.986;5.760;2022-08-21T10:12:15;9.90;;;1.90;;
69081;SDS011;56184;51.986;5.760;2022-08-21T10:14:50;8.70;;;2.08;;
69081;SDS011;56184;51.986;5.760;2022-08-21T10:17:27;8.00;;;1.60;;
69081;SDS011;56184;51.986;5.760;2022-08-21T10:20:52;13.55;;;2.63;;
69081;SDS011;56184;51.986;5.760;2022-08-21T10:36:46;10.93;;;2.05;;
69081;SDS011;56184;51.986;5.760;2022-08-21T10:39:32;9.88;;;1.95;;
69081;SDS011;56184;51.986;5.760;2022-08-21T10:47:34;7.53;;;1.85;;
69081;SDS011;56184;51.986;5.760;2022-08-21T10:53:54;9.95;;;2.00;;
69081;SDS011;56184;51.986;5.760;2022-08-21T10:56:20;8.55;;;2.13;;
69081;SDS011;56184;51.986;5.760;2022-08-21T11:09:45;7.85;;;1.98;;
69081;SDS011;56184;51.986;5.760;2022-08-21T11:12:19;7.63;;;1.63;;
69081;SDS011;56184;51.986;5.760;2022-08-21T11:14:50;9.82;;;2.15;;
69081;SDS011;56184;51.986;5.760;2022-08-21T11:17:30;10.27;;;2.00;;
69081;SDS011;56184;51.986;5.760;2022-08-21T11:22:50;6.70;;;1.98;;
69081;SDS011;56184;51.986;5.760;2022-08-21T11:25:29;7.43;;;1.80;;
69081;SDS011;56184;51.986;5.760;2022-08-21T11:28:06;9.90;;;1.95;;
69081;SDS011;56184;51.986;5.760;2022-08-21T11:30:50;4.80;;;1.58;;
69081;SDS011;56184;51.986;5.760;2022-08-21T11:41:31;8.05;;;1.70;;
69081;SDS011;56184;51.986;5.760;2022-08-21T11:44:10;9.27;;;2.03;;
69081;SDS011;56184;51.986;5.760;2022-08-21T11:47:45;6.82;;;1.73;;
69081;SDS011;56184;51.986;5.760;2022-08-21T11:50:02;7.75;;;1.70;;
69081;SDS011;56184;51.986;5.760;2022-08-21T11:52:42;7.47;;;1.75;;
69081;SDS011;56184;51.986;5.760;2022-08-21T11:58:03;9.60;;;2.00;;
69081;SDS011;56184;51.986;5.760;2022-08-21T12:00:36;8.75;;;1.92;;
69081;SDS011;56184;51.986;5.760;2022-08-21T12:03:08;6.97;;;1.60;;
69081;SDS011;56184;51.986;5.760;2022-08-21T12:05:57;8.05;;;1.55;;
69081;SDS011;56184;51.986;5.760;2022-08-21T12:16:33;5.65;;;1.48;;
69081;SDS011;56184;51.986;5.760;2022-08-21T12:19:08;8.45;;;1.70;;
69081;SDS011;56184;51.986;5.760;2022-08-21T12:24:37;6.28;;;1.55;;
69081;SDS011;56184;51.986;5.760;2022-08-21T12:27:29;8.10;;;1.58;;
69081;SDS011;56184;51.986;5.760;2022-08-21T12:30:06;5.32;;;1.50;;
69081;SDS011;56184;51.986;5.760;2022-08-21T12:32:45;7.05;;;1.70;;
69081;SDS011;56184;51.986;5.760;2022-08-21T12:35:25;5.72;;;1.58;;
69081;SDS011;56184;51.986;5.760;2022-08-21T12:40:30;5.60;;;1.20;;
69081;SDS011;56184;51.986;5.760;2022-08-21T12:43:05;4.78;;;1.20;;
69081;SDS011;56184;51.986;5.760;2022-08-21T12:45:47;3.75;;;1.30;;
69081;SDS011;56184;51.986;5.760;2022-08-21T12:48:15;4.28;;;1.50;;
69081;SDS011;56184;51.986;5.760;2022-08-21T12:50:48;5.22;;;1.40;;
69081;SDS011;56184;51.986;5.760;2022-08-21T12:55:49;5.22;;;1.48;;
69081;SDS011;56184;51.986;5.760;2022-08-21T12:58:17;5.25;;;1.50;;
69081;SDS011;56184;51.986;5.760;2022-08-21T13:01:06;4.05;;;1.40;;
69081;SDS011;56184;51.986;5.760;2022-08-21T13:03:38;5.95;;;1.60;;
69081;SDS011;56184;51.986;5.760;2022-08-21T13:06:06;8.25;;;1.42;;
69081;SDS011;56184;51.986;5.760;2022-08-21T13:08:37;3.22;;;1.40;;
69081;SDS011;56184;51.986;5.760;2022-08-21T13:11:04;4.95;;;1.27;;
69081;SDS011;56184;51.986;5.760;2022-08-21T13:13:31;5.00;;;1.10;;
69081;SDS011;56184;51.986;5.760;2022-08-21T13:16:04;4.15;;;1.20;;
69081;SDS011;56184;51.986;5.760;2022-08-21T13:18:33;7.18;;;1.20;;
69081;SDS011;56184;51.986;5.760;2022-08-21T13:21:11;4.93;;;1.13;;
69081;SDS011;56184;51.986;5.760;2022-08-21T13:23:39;5.10;;;1.27;;
69081;SDS011;56184;51.986;5.760;2022-08-21T13:26:19;5.05;;;1.40;;
69081;SDS011;56184;51.986;5.760;2022-08-21T13:28:46;4.63;;;1.33;;
69081;SDS011;56184;51.986;5.760;2022-08-21T13:31:21;5.90;;;1.45;;
69081;SDS011;56184;51.986;5.760;2022-08-21T13:33:51;5.35;;;1.65;;
69081;SDS011;56184;51.986;5.760;2022-08-21T13:36:26;6.65;;;1.52;;
69081;SDS011;56184;51.986;5.760;2022-08-21T13:38:57;8.77;;;1.35;;
69081;SDS011;56184;51.986;5.760;2022-08-21T13:41:27;5.63;;;1.60;;
69081;SDS011;56184;51.986;5.760;2022-08-21T13:46:26;7.03;;;1.40;;
69081;SDS011;56184;51.986;5.760;2022-08-21T13:48:56;3.95;;;1.35;;
69081;SDS011;56184;51.986;5.760;2022-08-21T13:51:24;3.47;;;1.13;;
69081;SDS011;56184;51.986;5.760;2022-08-21T13:53:52;6.72;;;1.38;;
69081;SDS011;56184;51.986;5.760;2022-08-21T13:56:30;3.47;;;1.15;;
69081;SDS011;56184;51.986;5.760;2022-08-21T13:58:58;3.35;;;1.13;;
69081;SDS011;56184;51.986;5.760;2022-08-21T14:03:54;3.50;;;1.10;;
69081;SDS011;56184;51.986;5.760;2022-08-21T14:06:27;3.67;;;1.20;;
69081;SDS011;56184;51.986;5.760;2022-08-21T14:08:58;5.22;;;1.35;;
69081;SDS011;56184;51.986;5.760;2022-08-21T14:11:35;4.70;;;1.30;;
69081;SDS011;56184;51.986;5.760;2022-08-21T14:14:05;5.15;;;1.67;;
69081;SDS011;56184;51.986;5.760;2022-08-21T14:16:46;5.78;;;1.10;;
69081;SDS011;56184;51.986;5.760;2022-08-21T14:21:44;6.35;;;1.40;;
69081;SDS011;56184;51.986;5.760;2022-08-21T14:24:12;6.65;;;1.60;;
69081;SDS011;56184;51.986;5.760;2022-08-21T14:26:52;5.43;;;1.30;;
69081;SDS011;56184;51.986;5.760;2022-08-21T14:29:24;3.92;;;1.33;;
69081;SDS011;56184;51.986;5.760;2022-08-21T14:31:53;5.47;;;1.33;;
69081;SDS011;56184;51.986;5.760;2022-08-21T14:34:22;6.25;;;1.48;;
69081;SDS011;56184;51.986;5.760;2022-08-21T14:36:52;5.72;;;1.40;;
69081;SDS011;56184;51.986;5.760;2022-08-21T14:39:19;5.25;;;1.40;;
69081;SDS011;56184;51.986;5.760;2022-08-21T14:41:45;8.27;;;1.70;;
69081;SDS011;56184;51.986;5.760;2022-08-21T14:44:13;4.50;;;1.48;;
69081;SDS011;56184;51.986;5.760;2022-08-21T14:46:40;3.75;;;1.38;;
69081;SDS011;56184;51.986;5.760;2022-08-21T14:49:06;3.85;;;1.27;;
69081;SDS011;56184;51.986;5.760;2022-08-21T14:51:32;6.93;;;1.80;;
69081;SDS011;56184;51.986;5.760;2022-08-21T14:53:58;5.45;;;1.60;;
69081;SDS011;56184;51.986;5.760;2022-08-21T14:56:23;4.05;;;1.30;;
69081;SDS011;56184;51.986;5.760;2022-08-21T14:58:50;5.00;;;1.70;;
69081;SDS011;56184;51.986;5.760;2022-08-21T15:01:18;5.50;;;1.40;;
69081;SDS011;56184;51.986;5.760;2022-08-21T15:03:45;5.25;;;1.35;;
69081;SDS011;56184;51.986;5.760;2022-08-21T15:06:13;3.13;;;1.10;;
69081;SDS011;56184;51.986;5.760;2022-08-21T15:08:39;3.88;;;1.40;;
69081;SDS011;56184;51.986;5.760;2022-08-21T15:11:05;5.07;;;1.25;;
69081;SDS011;56184;51.986;5.760;2022-08-21T15:13:32;4.03;;;1.30;;
69081;SDS011;56184;51.986;5.760;2022-08-21T15:15:58;4.65;;;1.45;;
69081;SDS011;56184;51.986;5.760;2022-08-21T15:18:24;5.78;;;1.42;;
69081;SDS011;56184;51.986;5.760;2022-08-21T15:20:51;5.38;;;1.70;;
69081;SDS011;56184;51.986;5.760;2022-08-21T15:23:17;6.72;;;1.40;;
69081;SDS011;56184;51.986;5.760;2022-08-21T15:25:43;7.50;;;1.67;;
69081;SDS011;56184;51.986;5.760;2022-08-21T15:28:10;6.38;;;1.80;;
69081;SDS011;56184;51.986;5.760;2022-08-21T15:30:37;5.65;;;1.50;;
69081;SDS011;56184;51.986;5.760;2022-08-21T15:33:05;7.18;;;1.67;;
69081;SDS011;56184;51.986;5.760;2022-08-21T15:35:31;5.95;;;1.50;;
69081;SDS011;56184;51.986;5.760;2022-08-21T15:37:57;10.05;;;1.92;;
69081;SDS011;56184;51.986;5.760;2022-08-21T15:40:24;6.75;;;1.45;;
69081;SDS011;56184;51.986;5.760;2022-08-21T15:42:50;3.05;;;1.52;;
69081;SDS011;56184;51.986;5.760;2022-08-21T15:45:20;9.20;;;1.58;;
69081;SDS011;56184;51.986;5.760;2022-08-21T15:47:46;4.70;;;1.35;;
69081;SDS011;56184;51.986;5.760;2022-08-21T15:50:14;3.90;;;1.30;;
69081;SDS011;56184;51.986;5.760;2022-08-21T15:52:40;4.85;;;1.38;;
69081;SDS011;56184;51.986;5.760;2022-08-21T15:55:06;5.22;;;1.70;;
69081;SDS011;56184;51.986;5.760;2022-08-21T15:57:33;5.68;;;1.33;;
69081;SDS011;56184;51.986;5.760;2022-08-21T16:00:00;5.60;;;1.45;;
69081;SDS011;56184;51.986;5.760;2022-08-21T16:02:38;5.30;;;1.17;;
69081;SDS011;56184;51.986;5.760;2022-08-21T16:05:07;5.53;;;1.40;;
69081;SDS011;56184;51.986;5.760;2022-08-21T16:07:35;6.40;;;1.60;;
69081;SDS011;56184;51.986;5.760;2022-08-21T16:10:01;6.10;;;1.50;;
69081;SDS011;56184;51.986;5.760;2022-08-21T16:12:29;6.60;;;1.75;;
69081;SDS011;56184;51.986;5.760;2022-08-21T16:14:57;6.20;;;1.40;;
69081;SDS011;56184;51.986;5.760;2022-08-21T16:17:25;4.65;;;1.40;;
69081;SDS011;56184;51.986;5.760;2022-08-21T16:19:54;6.55;;;1.45;;
69081;SDS011;56184;51.986;5.760;2022-08-21T16:22:20;3.85;;;1.50;;
69081;SDS011;56184;51.986;5.760;2022-08-21T16:24:45;7.40;;;1.85;;
69081;SDS011;56184;51.986;5.760;2022-08-21T16:27:20;5.45;;;1.55;;